 Reno (UNR), Valley Road, Nevada Weather observations
Data are for observation ending at time listed.

 Day   Time    Ave.   Ave.  Ave.  Vector   Max.    Total    Solar   Ave.  
  of    of     Air    Rel.  Wind   Wind    Wind   Precip.   Rad.    Soil  
Year   Day     Temp.  Hum.  Speed  Dir.    Gust                     Temp. 
2008   (PST)    F      %     mph   deg.    mph      in.     W/m2     F   
------------------------------------------------------------------------------
 120   14:10   61.0    17   21.1   262     40.1     0.00     832    62.3
 120   14:20   60.5    19   19.8   260     36.2     0.00     812    62.4
 120   14:30   60.1    21   20.8   258     40.7     0.00     787    62.5
 120   14:40   59.3    23   20.0   269     35.4     0.00     766    62.6
 120   14:50   58.8    25   19.3   264     32.3     0.00     742    62.6
 120   15:00   58.5    27   17.8   271     31.1     0.00     714    62.7
 120   15:10   58.0    28   18.3   266     32.1     0.00     688    62.8
 120   15:20   57.6    29   18.3   268     37.8     0.00     660    62.8
 120   15:30   56.8    30   18.2   271     34.0     0.00     633    62.9
 120   15:40   56.3    31   18.5   275     31.8     0.00     602    62.9
 120   15:50   55.4    32   20.6   282     37.2     0.00     571    63.0
 120   16:00   55.0    33   19.1   282     35.5     0.00     541    63.0
 120   16:10   54.4    33   18.4   274     36.5     0.00     506    63.0
 120   16:20   54.2    34   18.0   279     35.9     0.00     473    63.1
 120   16:30   54.0    33   18.5   270     35.5     0.00     439    63.1
 120   16:40   53.2    34   19.2   282     31.5     0.00     404    63.1
 120   16:50   52.9    34   17.6   280     30.2     0.00     367    63.1
 120   17:00   52.9    34   15.1   276     28.3     0.00     332    63.1
 120   17:10   52.7    35   13.3   279     30.0     0.00     294    63.1
 120   17:20   52.1    36   12.6   263     24.6     0.00     259    63.0
 120   17:30   51.7    38   14.5   270     30.0     0.00     225    63.0
 120   17:40   51.2    38   13.2   269     24.4     0.00     186    62.9
 120   17:50   50.4    39   16.1   269     32.4     0.00     122    62.9
 120   18:00   50.0    39   16.2   263     30.0     0.00     113    62.8
 120   18:10   49.7    40   14.4   275     22.5     0.00      84    62.8
 120   18:20   49.1    42   17.5   268     34.6     0.00      64    62.7
 120   18:30   48.5    43   15.7   263     27.9     0.00      27    62.6
 120   18:40   48.0    43   18.5   267     32.5     0.00      12    62.5
 120   18:50   47.6    44   18.4   268     30.8     0.00       7    62.5
 120   19:00   47.2    45   16.0   268     27.1     0.00       3    62.3
 120   19:10   47.0    45   17.4   260     28.6     0.00       1    62.3
 120   19:20   46.9    45   16.4   257     31.3     0.00       0    62.2
 120   19:30   46.7    46   13.4   260     27.8     0.00       0    62.0
 120   19:40   46.5    48    9.7   257     24.1     0.00       0    61.9
 120   19:50   46.2    48    8.4   255     22.5     0.00       0    61.8
 120   20:00   46.1    47    8.0   264     22.9     0.00       0    61.7
 120   20:10   46.0    46    5.3   260     13.8     0.00       0    61.6
 120   20:20   45.8    46    6.2   253     16.6     0.00       0    61.5
 120   20:30   45.7    46    6.9   259     16.0     0.00       0    61.4
 120   20:40   45.6    46    7.3   240     18.8     0.00       0    61.2
 120   20:50   45.5    46    7.4   243     18.8     0.00       0    61.1
 120   21:00   45.4    46    8.5   243     23.0     0.00       0    61.0
 120   21:10   45.5    45   10.5   250     30.2     0.00       0    60.9
 120   21:20   45.2    46    9.7   256     22.9     0.00       0    60.8
 120   21:30   45.2    46    8.3   262     16.3     0.00       0    60.7
 120   21:40   45.1    47    8.0   273     17.8     0.00       0    60.5
 120   21:50   44.9    48    6.5   269     16.3     0.00       0    60.4
 120   22:00   44.7    48    6.4   275     14.6     0.00       0    60.3
 120   22:10   44.5    48    4.9   279     13.4     0.00       0    60.2
 120   22:20   44.5    48    7.9   258     17.2     0.00       0    60.1
 120   22:30   44.4    47    7.0   274     13.9     0.00       0    60.0
 120   22:40   44.3    48    7.2   286     14.4     0.00       0    59.9
 120   22:50   44.2    48    7.5   264     17.6     0.00       0    59.8
 120   23:00   44.2    47    8.2   267     15.7     0.00       0    59.7
 120   23:10   44.0    47    9.7   265     17.1     0.00       0    59.6
 120   23:20   43.7    46   10.1   287     18.7     0.00       0    59.5
 120   23:30   43.4    47   10.0   280     18.7     0.00       0    59.4
 120   23:40   43.3    48    9.9   276     17.4     0.00       0    59.3
 120   23:50   43.2    48   10.1   278     19.9     0.00       0    59.2
 121    0:00   42.9    48    9.0   285     15.4     0.00       0    59.1
 121    0:10   42.7    48   10.4   282     24.2     0.00       0    59.1
 121    0:20   42.6    47   11.1   275     20.4     0.00       0    59.0
 121    0:30   42.5    46   10.2   275     18.1     0.00       0    58.9
 121    0:40   42.2    46    9.1   289     17.4     0.00       0    58.8
 121    0:50   42.0    48    8.8   296     15.1     0.00       0    58.7
 121    1:00   41.9    48    8.3   297     15.2     0.00       0    58.6
 121    1:10   42.0    47    7.1   300     12.6     0.00       0    58.5
 121    1:20   41.7    47    8.8   310     14.4     0.00       0    58.5
 121    1:30   41.6    46    9.0   310     17.6     0.00       0    58.4
 121    1:40   41.6    47    8.4   299     14.8     0.00       0    58.3
 121    1:50   41.6    46    8.1   313     12.1     0.00       0    58.2
 121    2:00   41.5    46    9.2   313     17.2     0.00       0    58.1
 121    2:10   41.4    45    8.0   295     13.4     0.00       0    58.0
 121    2:20   41.3    45    7.6   291     12.1     0.00       0    58.0
 121    2:30   41.3    44    6.8   278     10.2     0.00       0    57.9
 121    2:40   39.0    57    8.8   334     18.8     0.00       0    57.8
 121    2:50   36.1    67   10.6   347     17.0     0.00       0    57.8
 121    3:00   35.3    68   11.1   338     18.2     0.00       0    57.7
 121    3:10   34.6    69   11.7   334     22.8     0.00       0    57.6
 121    3:20   34.5    69    9.5   338     18.7     0.00       0    57.5
 121    3:30   34.5    68    8.6   347     13.8     0.00       0    57.5
 121    3:40   34.7    66    9.4     1     16.4     0.00       0    57.4
 121    3:50   34.5    67    9.2     6     16.4     0.00       0    57.3
 121    4:00   34.1    67    8.9    15     15.9     0.00       0    57.3
 121    4:10   33.9    68    9.8    28     17.7     0.00       0    57.2
 121    4:20   33.5    69   10.1    32     17.2     0.00       0    57.1
 121    4:30   33.3    69    8.4    11     16.9     0.00       0    57.0
 121    4:40   33.1    68   10.9     1     21.0     0.00       0    57.0
 121    4:50   33.0    69    9.5    20     14.7     0.00       0    56.9
 121    5:00   32.8    70    9.2    18     13.7     0.00       2    56.8
 121    5:10   32.7    69    8.3    28     14.3     0.00       6    56.8
 121    5:20   32.7    68    9.5    26     15.2     0.00      13    56.7
 121    5:30   32.6    67    9.7    30     16.5     0.00      28    56.6
 121    5:40   32.5    68    9.8    19     15.7     0.00      42    56.5
 121    5:50   32.5    70    5.9     8     10.2     0.00      51    56.5
 121    6:00   32.4    67    6.8   352     12.6     0.00      67    56.4
 121    6:10   32.8    64    6.7   354     13.4     0.00     118    56.3
 121    6:20   33.5    61    5.2   338     12.6     0.00     199    56.2
 121    6:30   34.2    59    5.2   341      9.8     0.00     195    56.2
 121    6:40   34.1    57    8.5     7     15.8     0.00     265    56.1
 121    6:50   34.7    56    8.9     1     14.9     0.00     302    56.0
 121    7:00   35.4    54    9.0   348     14.8     0.00     336    56.0
 121    7:10   35.6    55    8.7   353     13.7     0.00     377    55.9
 121    7:20   36.2    54    8.7   350     13.7     0.00     419    55.9
 121    7:30   37.3    54    7.5     3     12.5     0.00     502    55.8
 121    7:40   37.6    53    8.3   352     14.6     0.00     487    55.8
 121    7:50   37.8    52    6.8   359     11.4     0.00     536    55.8
 121    8:00   38.0    52    8.0     4     11.9     0.00     554    55.8
 121    8:10   38.9    51    5.6    14      9.7     0.00     610    55.8
 121    8:20   40.3    48    2.6    85      6.2     0.00     643    55.8
 121    8:30   41.0    46    3.1    18      7.5     0.00     366    55.8
 121    8:40   39.1    50    5.3     1      9.5     0.00     515    55.9
 121    8:50   40.5    48    4.8    30     10.5     0.00     794    55.9
 121    9:00   41.6    46    6.5    23     12.0     0.00     643    55.9
 121    9:10   40.3    48    5.7     4      9.7     0.00     415    55.9
 121    9:20   40.8    47    6.5    29     14.8     0.00     572    55.9
 121    9:30   40.4    48    8.9    15     16.2     0.00     547    56.0
 121    9:40   42.3    45    9.6    10     18.1     0.00     859    56.0
 121    9:50   43.1    43    9.1    26     18.5     0.00     715    56.1
 121   10:00   42.6    42    6.5     6     12.2     0.00     474    56.1
 121   10:10   44.4    39    9.5     3     16.9     0.00     934    56.2
 121   10:20   44.6    37   12.1     5     19.0     0.00     858    56.2
 121   10:30   44.9    36   12.9    13     23.5     0.00     885    56.3
 121   10:40   44.5    36   12.9   345     23.3     0.00     859    56.4
 121   10:50   44.5    35   14.2   346     23.8     0.00     910    56.6
 121   11:00   44.7    34   13.4     0     21.4     0.00     895    56.7
 121   11:10   45.1    32   13.9   349     23.2     0.00     892    56.9
 121   11:20   45.3    30   13.7   358     21.5     0.00     977    57.0
 121   11:30   46.1    29   15.0   357     25.1     0.00     985    57.2
 121   11:40   45.9    29   16.3   358     26.6     0.00     986    57.4
 121   11:50   46.2    29   16.5     3     25.9     0.00     987    57.6
 121   12:00   45.9    30   17.2     7     28.9     0.00     989    57.8
 121   12:10   46.3    29   16.0   359     24.4     0.00     988    58.0
 121   12:20   46.3    29   15.3   357     26.7     0.00     986    58.1
 121   12:30   45.8    28   16.0   350     27.5     0.00     985    58.3
 121   12:40   45.9    28   17.3     3     27.7     0.00     980    58.5
 121   12:50   45.9    28   15.9    10     27.7     0.00     970    58.7
 121   13:00   46.9    27   14.8     7     29.1     0.00     963    58.9
 121   13:10   46.9    26   16.9   352     27.0     0.00     952    59.0
 121   13:20   46.4    26   19.2     6     30.2     0.00     940    59.1
 121   13:30   47.2    24   16.0   356     26.5     0.00     926    59.2
 121   13:40   47.6    24   17.1     8     29.2     0.00     909    59.3
 121   13:50   47.2    24   15.6   350     25.5     0.00     894    59.4
 121   14:00   47.7    23   14.5   345     26.4     0.00     876    59.5